< < Back
Terminal Aerodrome Forecast


Current Version              Previous Versions:   1  2  3  4  5  6  7  8  9  

Terminal Aerodrome Forecast

007
FTUS44 KMRX 240912 AAA
TAFCHA
TAF AMD
KCHA 240912Z 2409/2506 18010G20KT P6SM OVC035
     FM241500 22015G25KT P6SM BKN030
     FM241800 24010G20KT P6SM BKN040
     FM250200 24006KT P6SM SCT040=

Latest METAR

139
SAUS80 KWBC 241500
MTRCHA
METAR KCHA 241453Z 21016KT 10SM BKN038 BKN047 19/13 A2974 RMK AO2 SLP067
T01890128 51027


USA.gov is the U.S. government's official web portal to all federal, state and local government web resources and services.